Terminal Aerodrome Forecast
Issued by NWS

Home | Current Version | Previous Version | Text Only | Print | Product List | Glossary On
Versions: 1 2 3 4 5 6 7 8 9 10 11 12 13 14 15 16 17 18 19 20 21 22 23 24 25 26 27 28 29 30 31
000
FTUS41 KBOX 222344
TAFHYA
TAF
KHYA 222344Z 2300/2324 06008KT P6SM BKN090
     FM230700 06007KT P6SM OVC025
     FM231100 04008KT P6SM BKN020
     FM231300 04009KT P6SM BKN025
     FM231500 04010KT P6SM BKN035=

USA.gov is the U.S. government's official web portal to all federal, state and local government web resources and services.